sensor_id;sensor_type;location;lat;lon;timestamp;pressure;altitude;pressure_sealevel;temperature
29423;BMP180;16399;51.686;8.684;2022-07-31T00:00:51;100135.00;;;18.50
29423;BMP180;16399;51.686;8.684;2022-07-31T00:03:53;100131.00;;;18.50
29423;BMP180;16399;51.686;8.684;2022-07-31T00:06:56;100133.00;;;18.50
29423;BMP180;16399;51.686;8.684;2022-07-31T00:09:58;100133.00;;;18.50
29423;BMP180;16399;51.686;8.684;2022-07-31T00:13:00;100121.00;;;18.50
29423;BMP180;16399;51.686;8.684;2022-07-31T00:16:03;100123.00;;;18.50
29423;BMP180;16399;51.686;8.684;2022-07-31T00:19:05;100116.00;;;18.50
29423;BMP180;16399;51.686;8.684;2022-07-31T00:22:07;100120.00;;;18.50
29423;BMP180;16399;51.686;8.684;2022-07-31T00:25:11;100115.00;;;18.40
29423;BMP180;16399;51.686;8.684;2022-07-31T00:28:13;100110.00;;;18.40
29423;BMP180;16399;51.686;8.684;2022-07-31T00:31:16;100106.00;;;18.40
29423;BMP180;16399;51.686;8.684;2022-07-31T00:34:18;100111.00;;;18.30
29423;BMP180;16399;51.686;8.684;2022-07-31T00:37:20;100102.00;;;18.30
29423;BMP180;16399;51.686;8.684;2022-07-31T00:40:23;100104.00;;;18.30
29423;BMP180;16399;51.686;8.684;2022-07-31T00:43:25;100106.00;;;18.20
29423;BMP180;16399;51.686;8.684;2022-07-31T00:46:27;100107.00;;;18.20
29423;BMP180;16399;51.686;8.684;2022-07-31T00:49:30;100096.00;;;18.10
29423;BMP180;16399;51.686;8.684;2022-07-31T00:52:32;100094.00;;;18.10
29423;BMP180;16399;51.686;8.684;2022-07-31T00:55:34;100092.00;;;18.10
29423;BMP180;16399;51.686;8.684;2022-07-31T00:58:38;100088.00;;;18.00
29423;BMP180;16399;51.686;8.684;2022-07-31T01:01:40;100091.00;;;18.00
29423;BMP180;16399;51.686;8.684;2022-07-31T01:04:43;100090.00;;;17.90
29423;BMP180;16399;51.686;8.684;2022-07-31T01:07:45;100098.00;;;17.90
29423;BMP180;16399;51.686;8.684;2022-07-31T01:10:55;100094.00;;;17.90
29423;BMP180;16399;51.686;8.684;2022-07-31T01:13:59;100086.00;;;17.90
29423;BMP180;16399;51.686;8.684;2022-07-31T01:17:03;100087.00;;;17.90
29423;BMP180;16399;51.686;8.684;2022-07-31T01:20:07;100087.00;;;17.90
29423;BMP180;16399;51.686;8.684;2022-07-31T01:26:56;100078.00;;;17.90
29423;BMP180;16399;51.686;8.684;2022-07-31T01:30:00;100080.00;;;17.90
29423;BMP180;16399;51.686;8.684;2022-07-31T01:33:05;100082.00;;;17.90
29423;BMP180;16399;51.686;8.684;2022-07-31T01:36:12;100064.00;;;17.90
29423;BMP180;16399;51.686;8.684;2022-07-31T01:39:14;100084.00;;;17.80
29423;BMP180;16399;51.686;8.684;2022-07-31T01:42:18;100084.00;;;17.80
29423;BMP180;16399;51.686;8.684;2022-07-31T01:45:22;100068.00;;;17.80
29423;BMP180;16399;51.686;8.684;2022-07-31T01:48:26;100080.00;;;17.80
29423;BMP180;16399;51.686;8.684;2022-07-31T01:51:29;100068.00;;;17.70
29423;BMP180;16399;51.686;8.684;2022-07-31T01:54:33;100085.00;;;17.70
29423;BMP180;16399;51.686;8.684;2022-07-31T01:57:37;100080.00;;;17.60
29423;BMP180;16399;51.686;8.684;2022-07-31T02:00:42;100067.00;;;17.60
29423;BMP180;16399;51.686;8.684;2022-07-31T02:03:45;100075.00;;;17.50
29423;BMP180;16399;51.686;8.684;2022-07-31T02:06:51;100083.00;;;17.50
29423;BMP180;16399;51.686;8.684;2022-07-31T02:09:54;100079.00;;;17.50
29423;BMP180;16399;51.686;8.684;2022-07-31T02:12:58;100068.00;;;17.40
29423;BMP180;16399;51.686;8.684;2022-07-31T02:16:03;100069.00;;;17.40
29423;BMP180;16399;51.686;8.684;2022-07-31T02:19:07;100065.00;;;17.30
29423;BMP180;16399;51.686;8.684;2022-07-31T02:22:11;100069.00;;;17.30
29423;BMP180;16399;51.686;8.684;2022-07-31T02:25:13;100065.00;;;17.20
29423;BMP180;16399;51.686;8.684;2022-07-31T02:28:17;100062.00;;;17.20
29423;BMP180;16399;51.686;8.684;2022-07-31T02:31:21;100065.00;;;17.10
29423;BMP180;16399;51.686;8.684;2022-07-31T02:34:25;100060.00;;;17.10
29423;BMP180;16399;51.686;8.684;2022-07-31T02:37:29;100064.00;;;17.10
29423;BMP180;16399;51.686;8.684;2022-07-31T02:40:32;100054.00;;;17.00
29423;BMP180;16399;51.686;8.684;2022-07-31T02:43:35;100053.00;;;17.00
29423;BMP180;16399;51.686;8.684;2022-07-31T02:46:38;100061.00;;;17.00
29423;BMP180;16399;51.686;8.684;2022-07-31T02:49:42;100058.00;;;16.90
29423;BMP180;16399;51.686;8.684;2022-07-31T02:52:45;100051.00;;;16.90
29423;BMP180;16399;51.686;8.684;2022-07-31T02:55:49;100048.00;;;16.90
29423;BMP180;16399;51.686;8.684;2022-07-31T02:58:52;100044.00;;;16.90
29423;BMP180;16399;51.686;8.684;2022-07-31T03:01:54;100039.00;;;16.80
29423;BMP180;16399;51.686;8.684;2022-07-31T03:04:56;100030.00;;;16.80
29423;BMP180;16399;51.686;8.684;2022-07-31T03:08:00;100024.00;;;16.80
29423;BMP180;16399;51.686;8.684;2022-07-31T03:11:02;100026.00;;;16.70
29423;BMP180;16399;51.686;8.684;2022-07-31T03:14:06;100028.00;;;16.70
29423;BMP180;16399;51.686;8.684;2022-07-31T03:17:09;100024.00;;;16.60
29423;BMP180;16399;51.686;8.684;2022-07-31T03:20:13;100024.00;;;16.60
29423;BMP180;16399;51.686;8.684;2022-07-31T03:23:18;100025.00;;;16.60
29423;BMP180;16399;51.686;8.684;2022-07-31T03:26:21;100022.00;;;16.50
29423;BMP180;16399;51.686;8.684;2022-07-31T03:29:23;100024.00;;;16.50
29423;BMP180;16399;51.686;8.684;2022-07-31T03:32:26;100023.00;;;16.50
29423;BMP180;16399;51.686;8.684;2022-07-31T03:35:29;100017.00;;;16.50
29423;BMP180;16399;51.686;8.684;2022-07-31T03:38:31;100017.00;;;16.50
29423;BMP180;16399;51.686;8.684;2022-07-31T03:41:34;100012.00;;;16.50
29423;BMP180;16399;51.686;8.684;2022-07-31T03:44:39;100008.00;;;16.50
29423;BMP180;16399;51.686;8.684;2022-07-31T03:47:42;100012.00;;;16.60
29423;BMP180;16399;51.686;8.684;2022-07-31T03:50:53;100014.00;;;16.60
29423;BMP180;16399;51.686;8.684;2022-07-31T03:53:56;100013.00;;;16.60
29423;BMP180;16399;51.686;8.684;2022-07-31T03:56:58;100011.00;;;16.60
29423;BMP180;16399;51.686;8.684;2022-07-31T04:00:03;100017.00;;;16.60
29423;BMP180;16399;51.686;8.684;2022-07-31T04:03:10;100020.00;;;16.70
29423;BMP180;16399;51.686;8.684;2022-07-31T04:06:12;100015.00;;;16.70
29423;BMP180;16399;51.686;8.684;2022-07-31T04:09:15;100021.00;;;16.80
29423;BMP180;16399;51.686;8.684;2022-07-31T04:12:17;100019.00;;;16.80
29423;BMP180;16399;51.686;8.684;2022-07-31T04:15:19;100023.00;;;16.90
29423;BMP180;16399;51.686;8.684;2022-07-31T04:18:22;100034.00;;;16.90
29423;BMP180;16399;51.686;8.684;2022-07-31T04:21:24;100029.00;;;16.90
29423;BMP180;16399;51.686;8.684;2022-07-31T04:24:26;100031.00;;;17.00
29423;BMP180;16399;51.686;8.684;2022-07-31T04:27:29;100015.00;;;17.00
29423;BMP180;16399;51.686;8.684;2022-07-31T04:30:31;100024.00;;;17.00
29423;BMP180;16399;51.686;8.684;2022-07-31T04:33:33;100018.00;;;17.00
29423;BMP180;16399;51.686;8.684;2022-07-31T04:36:36;100011.00;;;17.10
29423;BMP180;16399;51.686;8.684;2022-07-31T04:39:38;100012.00;;;17.10
29423;BMP180;16399;51.686;8.684;2022-07-31T04:42:40;100006.00;;;17.20
29423;BMP180;16399;51.686;8.684;2022-07-31T04:45:43;100010.00;;;17.20
29423;BMP180;16399;51.686;8.684;2022-07-31T04:48:45;100006.00;;;17.30
29423;BMP180;16399;51.686;8.684;2022-07-31T04:51:48;100018.00;;;17.40
29423;BMP180;16399;51.686;8.684;2022-07-31T04:54:50;100016.00;;;17.40
29423;BMP180;16399;51.686;8.684;2022-07-31T04:57:52;100018.00;;;17.50
29423;BMP180;16399;51.686;8.684;2022-07-31T05:00:55;100012.00;;;17.50
29423;BMP180;16399;51.686;8.684;2022-07-31T05:03:57;100012.00;;;17.60
29423;BMP180;16399;51.686;8.684;2022-07-31T05:06:59;100008.00;;;17.60
29423;BMP180;16399;51.686;8.684;2022-07-31T05:10:02;100005.00;;;17.70
29423;BMP180;16399;51.686;8.684;2022-07-31T05:13:05;99998.00;;;17.70
29423;BMP180;16399;51.686;8.684;2022-07-31T05:16:11;100001.00;;;17.80
29423;BMP180;16399;51.686;8.684;2022-07-31T05:19:13;100011.00;;;17.80
29423;BMP180;16399;51.686;8.684;2022-07-31T05:22:16;100003.00;;;17.90
29423;BMP180;16399;51.686;8.684;2022-07-31T05:25:18;100005.00;;;18.00
29423;BMP180;16399;51.686;8.684;2022-07-31T05:28:20;99994.00;;;18.10
29423;BMP180;16399;51.686;8.684;2022-07-31T05:31:23;99988.00;;;18.20
29423;BMP180;16399;51.686;8.684;2022-07-31T05:34:25;99989.00;;;18.30
29423;BMP180;16399;51.686;8.684;2022-07-31T05:37:29;99986.00;;;18.40
29423;BMP180;16399;51.686;8.684;2022-07-31T05:40:33;99990.00;;;18.50
29423;BMP180;16399;51.686;8.684;2022-07-31T05:43:36;99988.00;;;18.60
29423;BMP180;16399;51.686;8.684;2022-07-31T05:46:38;99982.00;;;18.80
29423;BMP180;16399;51.686;8.684;2022-07-31T05:49:40;99983.00;;;18.90
29423;BMP180;16399;51.686;8.684;2022-07-31T05:52:43;99979.00;;;19.00
29423;BMP180;16399;51.686;8.684;2022-07-31T05:55:47;99996.00;;;19.10
29423;BMP180;16399;51.686;8.684;2022-07-31T05:58:49;99983.00;;;19.20
29423;BMP180;16399;51.686;8.684;2022-07-31T06:01:51;99984.00;;;19.30
29423;BMP180;16399;51.686;8.684;2022-07-31T06:04:54;99980.00;;;19.40
29423;BMP180;16399;51.686;8.684;2022-07-31T06:07:56;99983.00;;;19.50
29423;BMP180;16399;51.686;8.684;2022-07-31T06:10:59;99988.00;;;19.60
29423;BMP180;16399;51.686;8.684;2022-07-31T06:14:01;99983.00;;;19.80
29423;BMP180;16399;51.686;8.684;2022-07-31T06:17:05;99988.00;;;19.90
29423;BMP180;16399;51.686;8.684;2022-07-31T06:20:08;99985.00;;;20.00
29423;BMP180;16399;51.686;8.684;2022-07-31T06:23:11;99982.00;;;20.10
29423;BMP180;16399;51.686;8.684;2022-07-31T06:26:13;99982.00;;;20.10
29423;BMP180;16399;51.686;8.684;2022-07-31T06:29:16;99982.00;;;20.10
29423;BMP180;16399;51.686;8.684;2022-07-31T06:32:18;99977.00;;;20.20
29423;BMP180;16399;51.686;8.684;2022-07-31T06:35:21;99970.00;;;20.20
29423;BMP180;16399;51.686;8.684;2022-07-31T06:38:23;99973.00;;;20.20
29423;BMP180;16399;51.686;8.684;2022-07-31T06:41:25;99967.00;;;20.30
29423;BMP180;16399;51.686;8.684;2022-07-31T06:44:47;99968.00;;;20.30
29423;BMP180;16399;51.686;8.684;2022-07-31T06:47:49;99959.00;;;20.40
29423;BMP180;16399;51.686;8.684;2022-07-31T06:50:51;99962.00;;;20.40
29423;BMP180;16399;51.686;8.684;2022-07-31T06:53:54;99970.00;;;20.50
29423;BMP180;16399;51.686;8.684;2022-07-31T06:56:57;99963.00;;;20.60
29423;BMP180;16399;51.686;8.684;2022-07-31T06:59:59;99963.00;;;20.70
29423;BMP180;16399;51.686;8.684;2022-07-31T07:03:01;99962.00;;;20.80
29423;BMP180;16399;51.686;8.684;2022-07-31T07:06:03;99957.00;;;21.00
29423;BMP180;16399;51.686;8.684;2022-07-31T07:09:06;99944.00;;;21.10
29423;BMP180;16399;51.686;8.684;2022-07-31T07:12:08;99947.00;;;21.30
29423;BMP180;16399;51.686;8.684;2022-07-31T07:15:11;99958.00;;;21.50
29423;BMP180;16399;51.686;8.684;2022-07-31T07:18:13;99948.00;;;21.60
29423;BMP180;16399;51.686;8.684;2022-07-31T07:21:15;99943.00;;;21.70
29423;BMP180;16399;51.686;8.684;2022-07-31T07:24:17;99933.00;;;22.00
29423;BMP180;16399;51.686;8.684;2022-07-31T07:27:20;99942.00;;;22.30
29423;BMP180;16399;51.686;8.684;2022-07-31T07:30:22;99941.00;;;22.60
29423;BMP180;16399;51.686;8.684;2022-07-31T07:33:27;99938.00;;;22.90
29423;BMP180;16399;51.686;8.684;2022-07-31T07:39:46;99944.00;;;23.20
29423;BMP180;16399;51.686;8.684;2022-07-31T07:42:48;99943.00;;;23.20
29423;BMP180;16399;51.686;8.684;2022-07-31T07:45:51;99936.00;;;23.20
29423;BMP180;16399;51.686;8.684;2022-07-31T07:48:53;99934.00;;;23.30
29423;BMP180;16399;51.686;8.684;2022-07-31T07:51:55;99936.00;;;23.40
29423;BMP180;16399;51.686;8.684;2022-07-31T07:54:58;99937.00;;;23.50
29423;BMP180;16399;51.686;8.684;2022-07-31T07:58:00;99932.00;;;23.60
29423;BMP180;16399;51.686;8.684;2022-07-31T08:01:02;99928.00;;;23.60
29423;BMP180;16399;51.686;8.684;2022-07-31T08:04:06;99934.00;;;23.70
29423;BMP180;16399;51.686;8.684;2022-07-31T08:07:09;99943.00;;;23.80
29423;BMP180;16399;51.686;8.684;2022-07-31T08:10:11;99932.00;;;23.90
29423;BMP180;16399;51.686;8.684;2022-07-31T08:13:15;99933.00;;;23.90
29423;BMP180;16399;51.686;8.684;2022-07-31T08:16:19;99927.00;;;24.00
29423;BMP180;16399;51.686;8.684;2022-07-31T08:19:21;99933.00;;;24.00
29423;BMP180;16399;51.686;8.684;2022-07-31T08:22:23;99927.00;;;24.10
29423;BMP180;16399;51.686;8.684;2022-07-31T08:25:26;99921.00;;;24.20
29423;BMP180;16399;51.686;8.684;2022-07-31T08:28:28;99920.00;;;24.20
29423;BMP180;16399;51.686;8.684;2022-07-31T08:31:30;99923.00;;;24.30
29423;BMP180;16399;51.686;8.684;2022-07-31T08:34:32;99926.00;;;24.40
29423;BMP180;16399;51.686;8.684;2022-07-31T08:37:35;99923.00;;;24.40
29423;BMP180;16399;51.686;8.684;2022-07-31T08:40:37;99922.00;;;24.40
29423;BMP180;16399;51.686;8.684;2022-07-31T08:43:40;99917.00;;;24.40
29423;BMP180;16399;51.686;8.684;2022-07-31T08:46:43;99911.00;;;24.40
29423;BMP180;16399;51.686;8.684;2022-07-31T08:49:47;99913.00;;;24.50
29423;BMP180;16399;51.686;8.684;2022-07-31T08:52:50;99908.00;;;24.40
29423;BMP180;16399;51.686;8.684;2022-07-31T08:55:54;99910.00;;;24.40
29423;BMP180;16399;51.686;8.684;2022-07-31T08:58:56;99895.00;;;24.40
29423;BMP180;16399;51.686;8.684;2022-07-31T09:01:58;99895.00;;;24.40
29423;BMP180;16399;51.686;8.684;2022-07-31T09:05:01;99895.00;;;24.40
29423;BMP180;16399;51.686;8.684;2022-07-31T09:08:05;99878.00;;;24.60
29423;BMP180;16399;51.686;8.684;2022-07-31T09:11:09;99881.00;;;24.80
29423;BMP180;16399;51.686;8.684;2022-07-31T09:14:11;99876.00;;;25.00
29423;BMP180;16399;51.686;8.684;2022-07-31T09:17:14;99875.00;;;25.10
29423;BMP180;16399;51.686;8.684;2022-07-31T09:20:24;99879.00;;;25.10
29423;BMP180;16399;51.686;8.684;2022-07-31T09:23:22;99872.00;;;25.20
29423;BMP180;16399;51.686;8.684;2022-07-31T09:26:33;99883.00;;;25.20
29423;BMP180;16399;51.686;8.684;2022-07-31T09:29:40;99874.00;;;25.30
29423;BMP180;16399;51.686;8.684;2022-07-31T09:32:42;99869.00;;;25.30
29423;BMP180;16399;51.686;8.684;2022-07-31T09:35:48;99866.00;;;25.40
29423;BMP180;16399;51.686;8.684;2022-07-31T09:38:50;99866.00;;;25.50
29423;BMP180;16399;51.686;8.684;2022-07-31T09:41:53;99861.00;;;25.70
29423;BMP180;16399;51.686;8.684;2022-07-31T09:44:55;99865.00;;;25.80
29423;BMP180;16399;51.686;8.684;2022-07-31T09:48:04;99849.00;;;25.80
29423;BMP180;16399;51.686;8.684;2022-07-31T09:51:08;99857.00;;;26.00
29423;BMP180;16399;51.686;8.684;2022-07-31T09:54:28;99849.00;;;26.00
29423;BMP180;16399;51.686;8.684;2022-07-31T09:57:31;99856.00;;;26.10
29423;BMP180;16399;51.686;8.684;2022-07-31T10:00:36;99854.00;;;26.10
29423;BMP180;16399;51.686;8.684;2022-07-31T10:03:40;99851.00;;;26.10
29423;BMP180;16399;51.686;8.684;2022-07-31T10:06:45;99858.00;;;26.10
29423;BMP180;16399;51.686;8.684;2022-07-31T10:09:47;99850.00;;;26.20
29423;BMP180;16399;51.686;8.684;2022-07-31T10:12:52;99855.00;;;26.20
29423;BMP180;16399;51.686;8.684;2022-07-31T10:15:56;99850.00;;;26.20
29423;BMP180;16399;51.686;8.684;2022-07-31T10:19:00;99845.00;;;26.20
29423;BMP180;16399;51.686;8.684;2022-07-31T10:22:04;99846.00;;;26.20
29423;BMP180;16399;51.686;8.684;2022-07-31T10:25:08;99843.00;;;26.20
29423;BMP180;16399;51.686;8.684;2022-07-31T10:28:15;99842.00;;;26.10
29423;BMP180;16399;51.686;8.684;2022-07-31T10:31:18;99850.00;;;26.00
29423;BMP180;16399;51.686;8.684;2022-07-31T10:34:21;99838.00;;;25.90
29423;BMP180;16399;51.686;8.684;2022-07-31T10:37:30;99836.00;;;25.70
29423;BMP180;16399;51.686;8.684;2022-07-31T10:40:39;99842.00;;;25.60
29423;BMP180;16399;51.686;8.684;2022-07-31T10:43:49;99838.00;;;25.60
29423;BMP180;16399;51.686;8.684;2022-07-31T10:46:50;99831.00;;;25.60
29423;BMP180;16399;51.686;8.684;2022-07-31T10:49:53;99836.00;;;25.70
29423;BMP180;16399;51.686;8.684;2022-07-31T10:53:07;99835.00;;;25.70
29423;BMP180;16399;51.686;8.684;2022-07-31T10:56:09;99835.00;;;25.80
29423;BMP180;16399;51.686;8.684;2022-07-31T10:59:13;99828.00;;;25.80
29423;BMP180;16399;51.686;8.684;2022-07-31T11:02:29;99829.00;;;25.90
29423;BMP180;16399;51.686;8.684;2022-07-31T11:05:32;99838.00;;;25.90
29423;BMP180;16399;51.686;8.684;2022-07-31T11:08:49;99841.00;;;25.90
29423;BMP180;16399;51.686;8.684;2022-07-31T11:11:53;99838.00;;;25.80
29423;BMP180;16399;51.686;8.684;2022-07-31T11:14:55;99842.00;;;25.70
29423;BMP180;16399;51.686;8.684;2022-07-31T11:17:58;99828.00;;;25.70
29423;BMP180;16399;51.686;8.684;2022-07-31T11:21:11;99831.00;;;25.80
29423;BMP180;16399;51.686;8.684;2022-07-31T11:24:21;99826.00;;;25.70
29423;BMP180;16399;51.686;8.684;2022-07-31T11:27:31;99822.00;;;25.80
29423;BMP180;16399;51.686;8.684;2022-07-31T11:30:33;99806.00;;;25.90
29423;BMP180;16399;51.686;8.684;2022-07-31T11:33:39;99810.00;;;26.20
29423;BMP180;16399;51.686;8.684;2022-07-31T11:36:43;99810.00;;;26.40
29423;BMP180;16399;51.686;8.684;2022-07-31T11:39:46;99809.00;;;26.60
29423;BMP180;16399;51.686;8.684;2022-07-31T11:42:49;99817.00;;;26.50
29423;BMP180;16399;51.686;8.684;2022-07-31T11:45:52;99825.00;;;26.50
29423;BMP180;16399;51.686;8.684;2022-07-31T11:48:55;99812.00;;;26.30
29423;BMP180;16399;51.686;8.684;2022-07-31T11:52:02;99821.00;;;26.10
29423;BMP180;16399;51.686;8.684;2022-07-31T11:55:06;99824.00;;;26.10
29423;BMP180;16399;51.686;8.684;2022-07-31T11:58:10;99823.00;;;26.00
29423;BMP180;16399;51.686;8.684;2022-07-31T12:01:12;99823.00;;;25.90
29423;BMP180;16399;51.686;8.684;2022-07-31T12:04:16;99819.00;;;25.80
29423;BMP180;16399;51.686;8.684;2022-07-31T12:07:19;99822.00;;;25.70
29423;BMP180;16399;51.686;8.684;2022-07-31T12:10:21;99827.00;;;25.70
29423;BMP180;16399;51.686;8.684;2022-07-31T12:13:24;99810.00;;;25.60
29423;BMP180;16399;51.686;8.684;2022-07-31T12:16:37;99826.00;;;25.60
29423;BMP180;16399;51.686;8.684;2022-07-31T12:19:34;99810.00;;;25.70
29423;BMP180;16399;51.686;8.684;2022-07-31T12:22:36;99820.00;;;26.00
29423;BMP180;16399;51.686;8.684;2022-07-31T12:25:40;99804.00;;;26.20
29423;BMP180;16399;51.686;8.684;2022-07-31T12:28:42;99818.00;;;26.30
29423;BMP180;16399;51.686;8.684;2022-07-31T12:31:52;99807.00;;;26.30
29423;BMP180;16399;51.686;8.684;2022-07-31T12:35:04;99807.00;;;26.10
29423;BMP180;16399;51.686;8.684;2022-07-31T12:38:08;99809.00;;;26.00
29423;BMP180;16399;51.686;8.684;2022-07-31T12:41:10;99801.00;;;25.90
29423;BMP180;16399;51.686;8.684;2022-07-31T12:44:13;99809.00;;;25.90
29423;BMP180;16399;51.686;8.684;2022-07-31T12:47:25;99804.00;;;26.00
29423;BMP180;16399;51.686;8.684;2022-07-31T12:50:25;99798.00;;;26.00
29423;BMP180;16399;51.686;8.684;2022-07-31T12:53:27;99794.00;;;26.10
29423;BMP180;16399;51.686;8.684;2022-07-31T12:56:37;99777.00;;;26.10
29423;BMP180;16399;51.686;8.684;2022-07-31T12:59:39;99791.00;;;26.20
29423;BMP180;16399;51.686;8.684;2022-07-31T13:02:42;99788.00;;;26.20
29423;BMP180;16399;51.686;8.684;2022-07-31T13:05:44;99781.00;;;26.20
29423;BMP180;16399;51.686;8.684;2022-07-31T13:08:46;99783.00;;;26.30
29423;BMP180;16399;51.686;8.684;2022-07-31T13:11:49;99790.00;;;26.40
29423;BMP180;16399;51.686;8.684;2022-07-31T13:14:51;99789.00;;;26.40
29423;BMP180;16399;51.686;8.684;2022-07-31T13:17:58;99792.00;;;26.30
29423;BMP180;16399;51.686;8.684;2022-07-31T13:20:57;99787.00;;;26.20
29423;BMP180;16399;51.686;8.684;2022-07-31T13:24:00;99791.00;;;25.90
29423;BMP180;16399;51.686;8.684;2022-07-31T13:27:04;99787.00;;;25.60
29423;BMP180;16399;51.686;8.684;2022-07-31T13:30:08;99790.00;;;25.50
29423;BMP180;16399;51.686;8.684;2022-07-31T13:33:10;99794.00;;;25.50
29423;BMP180;16399;51.686;8.684;2022-07-31T13:36:12;99796.00;;;25.20
29423;BMP180;16399;51.686;8.684;2022-07-31T13:39:15;99798.00;;;25.00
29423;BMP180;16399;51.686;8.684;2022-07-31T13:42:17;99800.00;;;24.80
29423;BMP180;16399;51.686;8.684;2022-07-31T13:45:19;99800.00;;;24.70
29423;BMP180;16399;51.686;8.684;2022-07-31T13:48:22;99796.00;;;24.60
29423;BMP180;16399;51.686;8.684;2022-07-31T13:51:24;99809.00;;;24.60
29423;BMP180;16399;51.686;8.684;2022-07-31T13:54:27;99798.00;;;24.70
29423;BMP180;16399;51.686;8.684;2022-07-31T13:57:29;99790.00;;;24.80
29423;BMP180;16399;51.686;8.684;2022-07-31T14:00:31;99796.00;;;24.90
29423;BMP180;16399;51.686;8.684;2022-07-31T14:03:34;99796.00;;;24.90
29423;BMP180;16399;51.686;8.684;2022-07-31T14:06:36;99791.00;;;24.90
29423;BMP180;16399;51.686;8.684;2022-07-31T14:09:38;99796.00;;;24.80
29423;BMP180;16399;51.686;8.684;2022-07-31T14:12:40;99788.00;;;24.80
29423;BMP180;16399;51.686;8.684;2022-07-31T14:15:43;99788.00;;;24.70
29423;BMP180;16399;51.686;8.684;2022-07-31T14:18:45;99786.00;;;24.60
29423;BMP180;16399;51.686;8.684;2022-07-31T14:21:48;99783.00;;;24.50
29423;BMP180;16399;51.686;8.684;2022-07-31T14:24:50;99786.00;;;24.50
29423;BMP180;16399;51.686;8.684;2022-07-31T14:27:53;99783.00;;;24.40
29423;BMP180;16399;51.686;8.684;2022-07-31T14:30:55;99780.00;;;24.50
29423;BMP180;16399;51.686;8.684;2022-07-31T14:33:57;99788.00;;;24.60
29423;BMP180;16399;51.686;8.684;2022-07-31T14:37:00;99774.00;;;24.80
29423;BMP180;16399;51.686;8.684;2022-07-31T14:40:04;99778.00;;;24.90
29423;BMP180;16399;51.686;8.684;2022-07-31T14:43:06;99774.00;;;25.00
29423;BMP180;16399;51.686;8.684;2022-07-31T14:46:10;99773.00;;;25.10
29423;BMP180;16399;51.686;8.684;2022-07-31T14:49:12;99776.00;;;25.10
29423;BMP180;16399;51.686;8.684;2022-07-31T14:52:15;99777.00;;;25.10
29423;BMP180;16399;51.686;8.684;2022-07-31T14:55:17;99777.00;;;25.10
29423;BMP180;16399;51.686;8.684;2022-07-31T14:58:19;99769.00;;;25.00
29423;BMP180;16399;51.686;8.684;2022-07-31T15:01:22;99773.00;;;24.90
29423;BMP180;16399;51.686;8.684;2022-07-31T15:04:24;99779.00;;;24.90
29423;BMP180;16399;51.686;8.684;2022-07-31T15:07:27;99782.00;;;24.80
29423;BMP180;16399;51.686;8.684;2022-07-31T15:10:29;99774.00;;;24.70
29423;BMP180;16399;51.686;8.684;2022-07-31T15:13:31;99777.00;;;24.60
29423;BMP180;16399;51.686;8.684;2022-07-31T15:16:33;99777.00;;;24.50
29423;BMP180;16399;51.686;8.684;2022-07-31T15:19:36;99771.00;;;24.50
29423;BMP180;16399;51.686;8.684;2022-07-31T15:22:38;99774.00;;;24.40
29423;BMP180;16399;51.686;8.684;2022-07-31T15:25:40;99767.00;;;24.40
29423;BMP180;16399;51.686;8.684;2022-07-31T15:28:43;99773.00;;;24.20
29423;BMP180;16399;51.686;8.684;2022-07-31T15:31:46;99765.00;;;24.10
29423;BMP180;16399;51.686;8.684;2022-07-31T15:34:48;99762.00;;;23.90
29423;BMP180;16399;51.686;8.684;2022-07-31T15:37:50;99757.00;;;23.80
29423;BMP180;16399;51.686;8.684;2022-07-31T15:40:52;99752.00;;;23.70
29423;BMP180;16399;51.686;8.684;2022-07-31T15:43:55;99750.00;;;23.70
29423;BMP180;16399;51.686;8.684;2022-07-31T15:46:58;99745.00;;;23.70
29423;BMP180;16399;51.686;8.684;2022-07-31T15:50:00;99751.00;;;23.80
29423;BMP180;16399;51.686;8.684;2022-07-31T15:53:03;99738.00;;;24.00
29423;BMP180;16399;51.686;8.684;2022-07-31T15:56:05;99741.00;;;24.10
29423;BMP180;16399;51.686;8.684;2022-07-31T15:59:07;99737.00;;;24.20
29423;BMP180;16399;51.686;8.684;2022-07-31T16:02:10;99723.00;;;24.30
29423;BMP180;16399;51.686;8.684;2022-07-31T16:05:12;99721.00;;;24.30
29423;BMP180;16399;51.686;8.684;2022-07-31T16:08:15;99716.00;;;24.40
29423;BMP180;16399;51.686;8.684;2022-07-31T16:11:17;99711.00;;;24.50
29423;BMP180;16399;51.686;8.684;2022-07-31T16:14:19;99704.00;;;24.50
29423;BMP180;16399;51.686;8.684;2022-07-31T16:17:21;99700.00;;;24.50
29423;BMP180;16399;51.686;8.684;2022-07-31T16:20:24;99701.00;;;24.50
29423;BMP180;16399;51.686;8.684;2022-07-31T16:23:26;99684.00;;;24.60
29423;BMP180;16399;51.686;8.684;2022-07-31T16:26:29;99690.00;;;24.70
29423;BMP180;16399;51.686;8.684;2022-07-31T16:29:33;99685.00;;;24.70
29423;BMP180;16399;51.686;8.684;2022-07-31T16:32:35;99679.00;;;24.80
29423;BMP180;16399;51.686;8.684;2022-07-31T16:35:37;99676.00;;;24.90
29423;BMP180;16399;51.686;8.684;2022-07-31T16:38:39;99676.00;;;25.00
29423;BMP180;16399;51.686;8.684;2022-07-31T16:41:42;99674.00;;;25.10
29423;BMP180;16399;51.686;8.684;2022-07-31T16:44:44;99676.00;;;25.00
29423;BMP180;16399;51.686;8.684;2022-07-31T16:47:46;99659.00;;;25.00
29423;BMP180;16399;51.686;8.684;2022-07-31T16:50:49;99660.00;;;24.90
29423;BMP180;16399;51.686;8.684;2022-07-31T16:53:51;99652.00;;;24.90
29423;BMP180;16399;51.686;8.684;2022-07-31T16:56:53;99655.00;;;24.90
29423;BMP180;16399;51.686;8.684;2022-07-31T16:59:55;99657.00;;;24.90
29423;BMP180;16399;51.686;8.684;2022-07-31T17:02:58;99652.00;;;25.00
29423;BMP180;16399;51.686;8.684;2022-07-31T17:06:00;99647.00;;;25.00
29423;BMP180;16399;51.686;8.684;2022-07-31T17:09:05;99645.00;;;25.10
29423;BMP180;16399;51.686;8.684;2022-07-31T17:12:08;99638.00;;;25.20
29423;BMP180;16399;51.686;8.684;2022-07-31T17:15:11;99635.00;;;25.10
29423;BMP180;16399;51.686;8.684;2022-07-31T17:18:13;99644.00;;;25.00
29423;BMP180;16399;51.686;8.684;2022-07-31T17:21:15;99641.00;;;24.90
29423;BMP180;16399;51.686;8.684;2022-07-31T17:24:18;99648.00;;;24.80
29423;BMP180;16399;51.686;8.684;2022-07-31T17:27:21;99641.00;;;24.70
29423;BMP180;16399;51.686;8.684;2022-07-31T17:30:24;99650.00;;;24.60
29423;BMP180;16399;51.686;8.684;2022-07-31T17:33:27;99640.00;;;24.50
29423;BMP180;16399;51.686;8.684;2022-07-31T17:36:29;99644.00;;;24.50